createdAt,value
2022-09-24T00:00:16.755Z,1010.68
2022-09-24T00:00:47.951Z,1010.68
2022-09-24T00:01:18.452Z,1010.68
2022-09-24T00:01:49.464Z,1010.66
2022-09-24T00:02:19.949Z,1010.68
2022-09-24T00:02:50.475Z,1010.66
2022-09-24T00:03:20.963Z,1010.64
2022-09-24T00:03:51.752Z,1010.64
2022-09-24T00:04:22.256Z,1010.60
2022-09-24T00:04:53.272Z,1010.59
2022-09-24T00:05:23.783Z,1010.58
2022-09-24T00:05:54.694Z,1010.57
2022-09-24T00:06:25.733Z,1010.57
2022-09-24T00:06:56.358Z,1010.55
2022-09-24T00:07:26.855Z,1010.53
2022-09-24T00:07:57.847Z,1010.52
2022-09-24T00:08:28.345Z,1010.53
2022-09-24T00:08:59.366Z,1010.52
2022-09-24T00:09:29.791Z,1010.53
2022-09-24T00:10:00.913Z,1010.55
2022-09-24T00:10:31.496Z,1010.53
2022-09-24T00:11:01.994Z,1010.53
2022-09-24T00:11:32.979Z,1010.54
2022-09-24T00:12:03.911Z,1010.55
2022-09-24T00:12:34.856Z,1010.54
2022-09-24T00:13:05.985Z,1010.54
2022-09-24T00:13:36.489Z,1010.54
2022-09-24T00:14:07.556Z,1010.54
2022-09-24T00:14:38.159Z,1010.56
2022-09-24T00:15:09.199Z,1010.55
2022-09-24T00:15:40.128Z,1010.53
2022-09-24T00:16:11.354Z,1010.53
2022-09-24T00:16:41.952Z,1010.52
2022-09-24T00:17:12.409Z,1010.51
2022-09-24T00:17:43.342Z,1010.50
2022-09-24T00:18:14.274Z,1010.48
2022-09-24T00:18:45.197Z,1010.49
2022-09-24T00:19:16.377Z,1010.50
2022-09-24T00:19:46.865Z,1010.50
2022-09-24T00:20:17.798Z,1010.50
2022-09-24T00:20:48.761Z,1010.50
2022-09-24T00:21:19.684Z,1010.46
2022-09-24T00:21:50.650Z,1010.46
2022-09-24T00:22:21.359Z,1010.45
2022-09-24T00:22:51.844Z,1010.46
2022-09-24T00:23:22.857Z,1010.45
2022-09-24T00:23:53.805Z,1010.45
2022-09-24T00:24:24.732Z,1010.47
2022-09-24T00:24:55.725Z,1010.48
2022-09-24T00:25:26.912Z,1010.45
2022-09-24T00:25:57.428Z,1010.44
2022-09-24T00:26:27.918Z,1010.44
2022-09-24T00:26:58.890Z,1010.43
2022-09-24T00:27:29.852Z,1010.43
2022-09-24T00:28:00.852Z,1010.43
2022-09-24T00:28:31.562Z,1010.42
2022-09-24T00:29:02.068Z,1010.43
2022-09-24T00:29:33.058Z,1010.41
2022-09-24T00:30:03.976Z,1010.38
2022-09-24T00:30:34.990Z,1010.39
2022-09-24T00:31:05.951Z,1010.38
2022-09-24T00:31:36.681Z,1010.40
2022-09-24T00:32:07.311Z,1010.39
2022-09-24T00:32:38.244Z,1010.40
2022-09-24T00:33:09.229Z,1010.39
2022-09-24T00:33:40.170Z,1010.36
2022-09-24T00:34:11.358Z,1010.36
2022-09-24T00:34:42.115Z,1010.38
2022-09-24T00:35:12.619Z,1010.35
2022-09-24T00:35:43.550Z,1010.35
2022-09-24T00:36:14.486Z,1010.36
2022-09-24T00:36:45.475Z,1010.35
2022-09-24T00:37:16.445Z,1010.34
2022-09-24T00:37:47.566Z,1010.34
2022-09-24T00:38:18.059Z,1010.34
2022-09-24T00:38:48.992Z,1010.31
2022-09-24T00:39:19.930Z,1010.32
2022-09-24T00:39:50.838Z,1010.34
2022-09-24T00:40:21.841Z,1010.33
2022-09-24T00:40:52.551Z,1010.32
2022-09-24T00:41:23.085Z,1010.31
2022-09-24T00:41:53.588Z,1010.29
2022-09-24T00:42:24.085Z,1010.28
2022-09-24T00:42:55.051Z,1010.26
2022-09-24T00:43:25.995Z,1010.26
2022-09-24T00:43:57.087Z,1010.25
2022-09-24T00:44:27.597Z,1010.25
2022-09-24T00:44:58.095Z,1010.24
2022-09-24T00:45:29.021Z,1010.23
2022-09-24T00:46:00.047Z,1010.25
2022-09-24T00:46:30.490Z,1010.24
2022-09-24T00:47:01.736Z,1010.24
2022-09-24T00:47:32.309Z,1010.23
2022-09-24T00:48:03.225Z,1010.24
2022-09-24T00:48:34.151Z,1010.25
2022-09-24T00:49:05.090Z,1010.24
2022-09-24T00:49:36.030Z,1010.24
2022-09-24T00:50:07.173Z,1010.25
2022-09-24T00:50:37.635Z,1010.24
2022-09-24T00:51:08.547Z,1010.25
2022-09-24T00:51:39.467Z,1010.26
2022-09-24T00:52:10.439Z,1010.24
2022-09-24T00:52:41.399Z,1010.22
2022-09-24T00:53:12.560Z,1010.23
2022-09-24T00:53:43.041Z,1010.22
2022-09-24T00:54:14.020Z,1010.22
2022-09-24T00:54:44.936Z,1010.22
2022-09-24T00:55:15.920Z,1010.22
2022-09-24T00:55:46.830Z,1010.21
2022-09-24T00:56:17.971Z,1010.21
2022-09-24T00:56:48.461Z,1010.20
2022-09-24T00:57:19.454Z,1010.22
2022-09-24T00:57:49.979Z,1010.21
2022-09-24T00:58:20.904Z,1010.22
2022-09-24T00:58:51.821Z,1010.22
2022-09-24T00:59:23.000Z,1010.22
2022-09-24T00:59:53.493Z,1010.23
2022-09-24T01:00:23.979Z,1010.21
2022-09-24T01:00:54.994Z,1010.21
2022-09-24T01:01:25.555Z,1010.20
2022-09-24T01:01:56.094Z,1010.23
2022-09-24T01:02:26.848Z,1010.20
2022-09-24T01:02:57.354Z,1010.21
2022-09-24T01:03:28.264Z,1010.23
2022-09-24T01:03:59.194Z,1010.22
2022-09-24T01:04:30.125Z,1010.23
2022-09-24T01:05:01.042Z,1010.21
2022-09-24T01:05:32.224Z,1010.21
2022-09-24T01:06:02.726Z,1010.20
2022-09-24T01:06:33.162Z,1010.18
2022-09-24T01:07:04.090Z,1010.18
2022-09-24T01:07:35.011Z,1010.17
2022-09-24T01:08:06.079Z,1010.17
2022-09-24T01:08:36.693Z,1010.17
2022-09-24T01:09:07.165Z,1010.14
2022-09-24T01:09:38.115Z,1010.14
2022-09-24T01:10:09.079Z,1010.13
2022-09-24T01:10:40.006Z,1010.12
2022-09-24T01:11:11.015Z,1010.09
2022-09-24T01:11:41.646Z,1010.09
2022-09-24T01:12:12.122Z,1010.09
2022-09-24T01:12:43.149Z,1010.10
2022-09-24T01:13:13.638Z,1010.11
2022-09-24T01:13:44.656Z,1010.10
2022-09-24T01:14:15.106Z,1010.10
2022-09-24T01:14:46.226Z,1010.10
2022-09-24T01:15:16.734Z,1010.09
2022-09-24T01:15:49.745Z,1010.10
2022-09-24T01:16:17.802Z,1010.10
2022-09-24T01:16:48.241Z,1010.09
2022-09-24T01:17:19.265Z,1010.11
2022-09-24T01:17:49.895Z,1010.10
2022-09-24T01:18:20.383Z,1010.10
2022-09-24T01:18:51.281Z,1010.08
2022-09-24T01:19:22.191Z,1010.08
2022-09-24T01:19:53.117Z,1010.10
2022-09-24T01:20:24.045Z,1010.08
2022-09-24T01:20:55.166Z,1010.08
2022-09-24T01:21:25.670Z,1010.06
2022-09-24T01:21:56.662Z,1010.05
2022-09-24T01:22:27.167Z,1010.04
2022-09-24T01:22:57.659Z,1010.02
2022-09-24T01:23:28.643Z,1010.01
2022-09-24T01:23:59.772Z,1010.00
2022-09-24T01:24:30.277Z,1010.01
2022-09-24T01:25:01.200Z,1009.99
2022-09-24T01:25:32.123Z,1009.98
2022-09-24T01:26:03.068Z,1009.99
2022-09-24T01:26:34.063Z,1009.99
2022-09-24T01:27:04.755Z,1009.97
2022-09-24T01:27:35.268Z,1009.96
2022-09-24T01:28:06.166Z,1009.97
2022-09-24T01:28:37.131Z,1009.95
2022-09-24T01:29:08.148Z,1009.95
2022-09-24T01:29:38.571Z,1009.95
2022-09-24T01:30:09.760Z,1009.96
2022-09-24T01:30:42.256Z,1009.96
2022-09-24T01:31:11.011Z,1009.95
2022-09-24T01:31:41.492Z,1009.94
2022-09-24T01:32:12.423Z,1009.93
2022-09-24T01:32:43.348Z,1009.94
2022-09-24T01:33:14.459Z,1009.95
2022-09-24T01:33:44.931Z,1009.93
2022-09-24T01:34:15.916Z,1009.94
2022-09-24T01:34:46.819Z,1009.93
2022-09-24T01:35:17.736Z,1009.93
2022-09-24T01:35:48.666Z,1009.93
2022-09-24T01:36:19.771Z,1009.91
2022-09-24T01:36:50.272Z,1009.90
2022-09-24T01:37:20.793Z,1009.90
2022-09-24T01:37:51.718Z,1009.89
2022-09-24T01:38:22.727Z,1009.87
2022-09-24T01:38:53.249Z,1009.87
2022-09-24T01:39:23.926Z,1009.87
2022-09-24T01:39:54.412Z,1009.84
2022-09-24T01:40:25.452Z,1009.85
2022-09-24T01:40:56.148Z,1009.85
2022-09-24T01:41:26.683Z,1009.84
2022-09-24T01:41:57.606Z,1009.83
2022-09-24T01:42:28.727Z,1009.83
2022-09-24T01:42:59.216Z,1009.84
2022-09-24T01:43:30.137Z,1009.83
2022-09-24T01:44:01.185Z,1009.82
2022-09-24T01:44:31.698Z,1009.80
2022-09-24T01:45:02.629Z,1009.81
2022-09-24T01:45:33.716Z,1009.80
2022-09-24T01:46:04.217Z,1009.81
2022-09-24T01:46:35.208Z,1009.79
2022-09-24T01:47:05.771Z,1009.77
2022-09-24T01:47:36.693Z,1009.76
2022-09-24T01:48:07.612Z,1009.75
2022-09-24T01:48:38.733Z,1009.73
2022-09-24T01:49:10.074Z,1009.72
2022-09-24T01:49:40.042Z,1009.71
2022-09-24T01:50:10.960Z,1009.70
2022-09-24T01:50:41.963Z,1009.71
2022-09-24T01:51:12.472Z,1009.68
2022-09-24T01:51:43.591Z,1009.68
2022-09-24T01:52:14.096Z,1009.68
2022-09-24T01:52:44.603Z,1009.67
2022-09-24T01:53:15.525Z,1009.66
2022-09-24T01:53:46.532Z,1009.67
2022-09-24T01:54:17.487Z,1009.68
2022-09-24T01:54:48.682Z,1009.69
2022-09-24T01:55:19.175Z,1009.68
2022-09-24T01:55:50.111Z,1009.69
2022-09-24T01:56:21.105Z,1009.69
2022-09-24T01:56:52.098Z,1009.68
2022-09-24T01:57:23.000Z,1009.70
2022-09-24T01:57:54.104Z,1009.71
2022-09-24T01:58:24.596Z,1009.70
2022-09-24T01:58:55.592Z,1009.70
2022-09-24T01:59:26.545Z,1009.69
2022-09-24T01:59:57.529Z,1009.68
2022-09-24T02:00:28.538Z,1009.69
2022-09-24T02:00:59.226Z,1009.68
2022-09-24T02:01:29.826Z,1009.68
2022-09-24T02:02:00.281Z,1009.66
2022-09-24T02:02:31.284Z,1009.67
2022-09-24T02:03:01.737Z,1009.65
2022-09-24T02:03:32.666Z,1009.64
2022-09-24T02:04:03.795Z,1009.65
2022-09-24T02:04:34.272Z,1009.65
2022-09-24T02:05:05.200Z,1009.61
2022-09-24T02:05:36.121Z,1009.60
2022-09-24T02:06:07.050Z,1009.59
2022-09-24T02:06:37.976Z,1009.58
2022-09-24T02:07:09.066Z,1009.59
2022-09-24T02:07:39.569Z,1009.59
2022-09-24T02:08:10.515Z,1009.58
2022-09-24T02:08:41.448Z,1009.58
2022-09-24T02:09:12.368Z,1009.59
2022-09-24T02:09:43.394Z,1009.58
2022-09-24T02:10:14.069Z,1009.55
2022-09-24T02:10:44.561Z,1009.56
2022-09-24T02:11:15.497Z,1009.58
2022-09-24T02:11:46.436Z,1009.59
2022-09-24T02:12:17.383Z,1009.61
2022-09-24T02:12:48.299Z,1009.57
2022-09-24T02:13:19.426Z,1009.57
2022-09-24T02:13:49.917Z,1009.57
2022-09-24T02:14:20.843Z,1009.58
2022-09-24T02:14:51.797Z,1009.57
2022-09-24T02:15:22.740Z,1009.57
2022-09-24T02:15:53.673Z,1009.56
2022-09-24T02:16:24.891Z,1009.56
2022-09-24T02:16:55.449Z,1009.56
2022-09-24T02:17:26.375Z,1009.55
2022-09-24T02:17:57.386Z,1009.55
2022-09-24T02:18:28.316Z,1009.56
2022-09-24T02:18:59.251Z,1009.57
2022-09-24T02:19:30.442Z,1009.56
2022-09-24T02:20:00.925Z,1009.54
2022-09-24T02:20:31.911Z,1009.54
2022-09-24T02:21:02.821Z,1009.55
2022-09-24T02:21:33.745Z,1009.54
2022-09-24T02:22:04.673Z,1009.51
2022-09-24T02:22:35.787Z,1009.52
2022-09-24T02:23:06.315Z,1009.50
2022-09-24T02:23:36.706Z,1009.49
2022-09-24T02:24:07.831Z,1009.48
2022-09-24T02:24:38.358Z,1009.48
2022-09-24T02:25:09.341Z,1009.49
2022-09-24T02:25:40.424Z,1009.48
2022-09-24T02:26:11.036Z,1009.46
2022-09-24T02:26:41.530Z,1009.46
2022-09-24T02:27:12.038Z,1009.49
2022-09-24T02:27:42.537Z,1009.49
2022-09-24T02:28:13.474Z,1009.50
2022-09-24T02:28:44.581Z,1009.49
2022-09-24T02:29:15.084Z,1009.49
2022-09-24T02:29:46.013Z,1009.50
2022-09-24T02:30:16.983Z,1009.48
2022-09-24T02:30:47.926Z,1009.46
2022-09-24T02:31:19.055Z,1009.46
2022-09-24T02:31:49.834Z,1009.45
2022-09-24T02:32:20.395Z,1009.43
2022-09-24T02:32:51.295Z,1009.43
2022-09-24T02:33:22.214Z,1009.43
2022-09-24T02:33:53.128Z,1009.40
2022-09-24T02:34:24.107Z,1009.41
2022-09-24T02:34:55.228Z,1009.41
2022-09-24T02:35:25.728Z,1009.39
2022-09-24T02:35:56.648Z,1009.38
2022-09-24T02:36:27.575Z,1009.39
2022-09-24T02:36:58.510Z,1009.38
2022-09-24T02:37:29.503Z,1009.38
2022-09-24T02:38:05.462Z,1009.36
2022-09-24T02:38:31.664Z,1009.36
2022-09-24T02:39:01.160Z,1009.36
2022-09-24T02:39:32.093Z,1009.36
2022-09-24T02:40:03.017Z,1009.36
2022-09-24T02:40:34.245Z,1009.33
2022-09-24T02:41:04.820Z,1009.34
2022-09-24T02:41:35.743Z,1009.34
2022-09-24T02:42:06.664Z,1009.33
2022-09-24T02:42:37.633Z,1009.33
2022-09-24T02:43:08.552Z,1009.32
2022-09-24T02:43:39.727Z,1009.29
2022-09-24T02:44:10.332Z,1009.28
2022-09-24T02:44:40.877Z,1009.29
2022-09-24T02:45:11.865Z,1009.28
2022-09-24T02:45:42.824Z,1009.26
2022-09-24T02:46:13.998Z,1009.27
2022-09-24T02:46:45.036Z,1009.28
2022-09-24T02:47:15.325Z,1009.27
2022-09-24T02:47:46.243Z,1009.27
2022-09-24T02:48:17.241Z,1009.27
2022-09-24T02:48:48.225Z,1009.26
2022-09-24T02:49:19.149Z,1009.27
2022-09-24T02:49:50.310Z,1009.26
2022-09-24T02:50:20.802Z,1009.25
2022-09-24T02:50:51.754Z,1009.27
2022-09-24T02:51:22.683Z,1009.26
2022-09-24T02:51:53.605Z,1009.25
2022-09-24T02:52:24.571Z,1009.27
2022-09-24T02:52:55.694Z,1009.29
2022-09-24T02:53:26.181Z,1009.28
2022-09-24T02:53:57.100Z,1009.28
2022-09-24T02:54:28.071Z,1009.29
2022-09-24T02:54:58.998Z,1009.30
2022-09-24T02:55:29.910Z,1009.31
2022-09-24T02:56:01.077Z,1009.33
2022-09-24T02:56:31.561Z,1009.33
2022-09-24T02:57:02.553Z,1009.34
2022-09-24T02:57:33.540Z,1009.34
2022-09-24T02:58:04.451Z,1009.37
2022-09-24T02:58:35.419Z,1009.36
2022-09-24T02:59:06.600Z,1009.35
2022-09-24T02:59:37.098Z,1009.34
2022-09-24T03:00:07.609Z,1009.34
2022-09-24T03:00:38.042Z,1009.35
2022-09-24T03:01:08.999Z,1009.33
2022-09-24T03:01:40.121Z,1009.34
2022-09-24T03:02:11.158Z,1009.33
2022-09-24T03:02:41.479Z,1009.35
2022-09-24T03:03:12.046Z,1009.36
2022-09-24T03:03:42.588Z,1009.36
2022-09-24T03:04:13.522Z,1009.38
2022-09-24T03:04:44.453Z,1009.38
2022-09-24T03:05:15.658Z,1009.40
2022-09-24T03:05:46.170Z,1009.40
2022-09-24T03:06:17.194Z,1009.42
2022-09-24T03:06:47.599Z,1009.41
2022-09-24T03:07:18.513Z,1009.41
2022-09-24T03:07:49.508Z,1009.41
2022-09-24T03:08:20.711Z,1009.40
2022-09-24T03:08:51.214Z,1009.41
2022-09-24T03:09:22.162Z,1009.42
2022-09-24T03:09:53.068Z,1009.41
2022-09-24T03:10:23.995Z,1009.42
2022-09-24T03:10:54.910Z,1009.42
2022-09-24T03:11:26.083Z,1009.45
2022-09-24T03:11:56.600Z,1009.47
2022-09-24T03:12:27.089Z,1009.49
2022-09-24T03:12:57.609Z,1009.48
2022-09-24T03:13:28.538Z,1009.48
2022-09-24T03:13:59.437Z,1009.46
2022-09-24T03:14:30.552Z,1009.45
2022-09-24T03:15:01.055Z,1009.44
2022-09-24T03:15:31.968Z,1009.44
2022-09-24T03:16:02.957Z,1009.41
2022-09-24T03:16:33.599Z,1009.42
2022-09-24T03:17:04.244Z,1009.43
2022-09-24T03:17:34.857Z,1009.41
2022-09-24T03:18:05.355Z,1009.39
2022-09-24T03:18:36.415Z,1009.40
2022-09-24T03:19:06.832Z,1009.37
2022-09-24T03:19:37.842Z,1009.37
2022-09-24T03:20:08.337Z,1009.38
2022-09-24T03:20:39.038Z,1009.35
2022-09-24T03:21:09.528Z,1009.32
2022-09-24T03:21:40.487Z,1009.32
2022-09-24T03:22:11.511Z,1009.31
2022-09-24T03:22:41.935Z,1009.29
2022-09-24T03:23:12.930Z,1009.33
2022-09-24T03:23:44.055Z,1009.32
2022-09-24T03:24:14.553Z,1009.31
2022-09-24T03:24:45.037Z,1009.33
2022-09-24T03:25:15.959Z,1009.33
2022-09-24T03:25:46.995Z,1009.32
2022-09-24T03:26:17.423Z,1009.31
2022-09-24T03:26:48.682Z,1009.30
2022-09-24T03:27:19.175Z,1009.30
2022-09-24T03:27:50.102Z,1009.31
2022-09-24T03:28:21.035Z,1009.30
2022-09-24T03:28:51.953Z,1009.30
2022-09-24T03:29:22.958Z,1009.28
2022-09-24T03:29:54.097Z,1009.28
2022-09-24T03:30:24.598Z,1009.30
2022-09-24T03:30:55.657Z,1009.29
2022-09-24T03:31:26.256Z,1009.29
2022-09-24T03:31:56.825Z,1009.30
2022-09-24T03:32:27.353Z,1009.29
2022-09-24T03:32:58.460Z,1009.30
2022-09-24T03:33:28.965Z,1009.28
2022-09-24T03:33:59.440Z,1009.29
2022-09-24T03:34:30.367Z,1009.30
2022-09-24T03:35:01.305Z,1009.29
2022-09-24T03:35:32.338Z,1009.29
2022-09-24T03:36:03.447Z,1009.30
2022-09-24T03:36:33.946Z,1009.30
2022-09-24T03:37:04.914Z,1009.29
2022-09-24T03:37:35.847Z,1009.31
2022-09-24T03:38:06.775Z,1009.32
2022-09-24T03:38:37.740Z,1009.31
2022-09-24T03:39:08.896Z,1009.31
2022-09-24T03:39:39.424Z,1009.29
2022-09-24T03:40:10.386Z,1009.30
2022-09-24T03:40:41.160Z,1009.30
2022-09-24T03:41:11.414Z,1009.29
2022-09-24T03:41:42.373Z,1009.30
2022-09-24T03:42:13.532Z,1009.29
2022-09-24T03:42:44.032Z,1009.29
2022-09-24T03:43:14.954Z,1009.28
2022-09-24T03:43:45.891Z,1009.27
2022-09-24T03:44:16.812Z,1009.27
2022-09-24T03:44:47.769Z,1009.28
2022-09-24T03:45:18.885Z,1009.27
2022-09-24T03:45:49.391Z,1009.30
2022-09-24T03:46:19.971Z,1009.26
2022-09-24T03:46:50.501Z,1009.25
2022-09-24T03:47:21.021Z,1009.25
2022-09-24T03:47:52.057Z,1009.23
2022-09-24T03:48:22.769Z,1009.23
2022-09-24T03:48:53.268Z,1009.22
2022-09-24T03:49:24.195Z,1009.19
2022-09-24T03:49:55.128Z,1009.19
2022-09-24T03:50:26.116Z,1009.19
2022-09-24T03:50:57.082Z,1009.18
2022-09-24T03:51:28.280Z,1009.19
2022-09-24T03:51:58.771Z,1009.21
2022-09-24T03:52:29.732Z,1009.19
2022-09-24T03:53:00.721Z,1009.19
2022-09-24T03:53:31.750Z,1009.18
2022-09-24T03:54:02.400Z,1009.19
2022-09-24T03:54:33.153Z,1009.17
2022-09-24T03:55:03.656Z,1009.16
2022-09-24T03:55:34.609Z,1009.16
2022-09-24T03:56:05.553Z,1009.15
2022-09-24T03:56:36.548Z,1009.15
2022-09-24T03:57:07.528Z,1009.15
2022-09-24T03:57:38.771Z,1009.14
2022-09-24T03:58:09.218Z,1009.14
2022-09-24T03:58:40.135Z,1009.13
2022-09-24T03:59:11.073Z,1009.13
2022-09-24T03:59:42.065Z,1009.12
2022-09-24T04:00:13.007Z,1009.11
2022-09-24T04:00:44.108Z,1009.13
2022-09-24T04:01:14.613Z,1009.11
2022-09-24T04:01:45.660Z,1009.11
2022-09-24T04:02:16.188Z,1009.12
2022-09-24T04:02:47.217Z,1009.12
2022-09-24T04:03:17.880Z,1009.11
2022-09-24T04:03:48.563Z,1009.13
2022-09-24T04:04:19.068Z,1009.11
2022-09-24T04:04:49.568Z,1009.12
2022-09-24T04:05:20.060Z,1009.11
2022-09-24T04:05:50.995Z,1009.11
2022-09-24T04:06:25.818Z,1009.10
2022-09-24T04:06:52.724Z,1009.08
2022-09-24T04:07:23.219Z,1009.06
2022-09-24T04:07:54.211Z,1009.06
2022-09-24T04:08:24.729Z,1009.08
2022-09-24T04:08:55.188Z,1009.09
2022-09-24T04:09:26.107Z,1009.11
2022-09-24T04:09:57.225Z,1009.08
2022-09-24T04:10:27.731Z,1009.08
2022-09-24T04:10:58.795Z,1009.08
2022-09-24T04:11:29.303Z,1009.08
2022-09-24T04:11:59.816Z,1009.07
2022-09-24T04:12:30.819Z,1009.07
2022-09-24T04:13:01.579Z,1009.08
2022-09-24T04:13:32.080Z,1009.06
2022-09-24T04:14:02.591Z,1009.04
2022-09-24T04:14:33.568Z,1009.02
2022-09-24T04:15:04.503Z,1009.02
2022-09-24T04:15:35.531Z,1009.01
2022-09-24T04:16:06.413Z,1009.00
2022-09-24T04:16:36.675Z,1009.02
2022-09-24T04:17:07.169Z,1009.00
2022-09-24T04:17:38.100Z,1009.01
2022-09-24T04:18:09.080Z,1008.99
2022-09-24T04:18:40.026Z,1008.98
2022-09-24T04:19:11.144Z,1008.98
2022-09-24T04:19:41.719Z,1008.96
2022-09-24T04:20:12.659Z,1008.95
2022-09-24T04:20:43.552Z,1008.96
2022-09-24T04:21:14.541Z,1008.95
2022-09-24T04:21:45.516Z,1008.97
2022-09-24T04:22:16.695Z,1008.99
2022-09-24T04:22:47.189Z,1009.00
2022-09-24T04:23:17.662Z,1009.00
2022-09-24T04:23:48.651Z,1009.01
2022-09-24T04:24:19.571Z,1009.02
2022-09-24T04:24:50.542Z,1009.00
2022-09-24T04:25:21.712Z,1008.98
2022-09-24T04:25:52.203Z,1008.97
2022-09-24T04:26:23.133Z,1008.96
2022-09-24T04:26:54.061Z,1008.96
2022-09-24T04:27:25.056Z,1008.96
2022-09-24T04:27:56.031Z,1008.95
2022-09-24T04:28:27.137Z,1008.94
2022-09-24T04:28:57.562Z,1008.95
2022-09-24T04:29:28.538Z,1008.94
2022-09-24T04:29:59.034Z,1008.95
2022-09-24T04:30:30.017Z,1008.99
2022-09-24T04:31:00.990Z,1009.01
2022-09-24T04:31:32.188Z,1008.99
2022-09-24T04:32:02.691Z,1008.98
2022-09-24T04:32:33.615Z,1009.00
2022-09-24T04:33:04.540Z,1009.01
2022-09-24T04:33:35.505Z,1009.02
2022-09-24T04:34:06.630Z,1009.04
2022-09-24T04:34:37.532Z,1009.04
2022-09-24T04:35:08.005Z,1009.05
2022-09-24T04:35:38.988Z,1009.03
2022-09-24T04:36:09.919Z,1009.05
2022-09-24T04:36:40.880Z,1009.07
2022-09-24T04:37:11.876Z,1009.08
2022-09-24T04:37:42.991Z,1009.06
2022-09-24T04:38:13.479Z,1009.06
2022-09-24T04:38:44.432Z,1009.06
2022-09-24T04:39:15.420Z,1009.05
2022-09-24T04:39:46.343Z,1009.06
2022-09-24T04:40:17.325Z,1009.09
2022-09-24T04:40:48.149Z,1009.09
2022-09-24T04:41:18.503Z,1009.09
2022-09-24T04:41:49.409Z,1009.08
2022-09-24T04:42:20.398Z,1009.09
2022-09-24T04:42:51.373Z,1009.07
2022-09-24T04:43:22.281Z,1009.07
2022-09-24T04:43:53.453Z,1009.06
2022-09-24T04:44:23.943Z,1009.05
2022-09-24T04:44:56.293Z,1009.03
2022-09-24T04:45:25.516Z,1009.01
2022-09-24T04:45:56.500Z,1009.01
2022-09-24T04:46:27.534Z,1009.02
2022-09-24T04:46:58.291Z,1009.01
2022-09-24T04:47:28.811Z,1009.00
2022-09-24T04:47:59.718Z,1008.98
2022-09-24T04:48:30.681Z,1008.97
2022-09-24T04:49:01.698Z,1008.96
2022-09-24T04:49:32.263Z,1008.96
2022-09-24T04:50:02.893Z,1008.94
2022-09-24T04:50:33.398Z,1008.93
2022-09-24T04:51:04.307Z,1008.93
2022-09-24T04:51:35.280Z,1008.90
2022-09-24T04:52:06.248Z,1008.90
2022-09-24T04:52:37.165Z,1008.87
2022-09-24T04:53:08.275Z,1008.86
2022-09-24T04:53:38.753Z,1008.85
2022-09-24T04:54:09.778Z,1008.84
2022-09-24T04:54:40.290Z,1008.83
2022-09-24T04:55:11.282Z,1008.85
2022-09-24T04:55:42.243Z,1008.85
2022-09-24T04:56:13.440Z,1008.86
2022-09-24T04:56:43.929Z,1008.87
2022-09-24T04:57:14.909Z,1008.88
2022-09-24T04:57:45.880Z,1008.88
2022-09-24T04:58:16.351Z,1008.88
2022-09-24T04:58:47.319Z,1008.89
2022-09-24T04:59:18.480Z,1008.92
2022-09-24T04:59:48.967Z,1008.92
2022-09-24T05:00:19.881Z,1008.90
2022-09-24T05:00:50.861Z,1008.92
2022-09-24T05:01:21.910Z,1008.92
2022-09-24T05:01:52.621Z,1008.93
2022-09-24T05:02:23.637Z,1008.92
2022-09-24T05:02:54.315Z,1008.91
2022-09-24T05:03:24.998Z,1008.92
2022-09-24T05:03:55.909Z,1008.90
2022-09-24T05:04:26.869Z,1008.89
2022-09-24T05:04:57.811Z,1008.88
2022-09-24T05:05:28.993Z,1008.88
2022-09-24T05:05:59.472Z,1008.88
2022-09-24T05:06:30.412Z,1008.87
2022-09-24T05:07:01.400Z,1008.88
2022-09-24T05:07:32.393Z,1008.89
2022-09-24T05:08:02.887Z,1008.89
2022-09-24T05:08:34.096Z,1008.87
2022-09-24T05:09:06.189Z,1008.90
2022-09-24T05:09:35.269Z,1008.92
2022-09-24T05:10:05.781Z,1008.93
2022-09-24T05:10:36.729Z,1008.92
2022-09-24T05:11:07.645Z,1008.92
2022-09-24T05:11:38.842Z,1008.91
2022-09-24T05:12:09.321Z,1008.91
2022-09-24T05:12:40.329Z,1008.87
2022-09-24T05:13:11.246Z,1008.88
2022-09-24T05:13:42.237Z,1008.89
2022-09-24T05:14:13.224Z,1008.86
2022-09-24T05:14:44.449Z,1008.84
2022-09-24T05:15:14.860Z,1008.83
2022-09-24T05:15:45.897Z,1008.83
2022-09-24T05:16:16.438Z,1008.82
2022-09-24T05:16:46.868Z,1008.83
2022-09-24T05:17:17.741Z,1008.83
2022-09-24T05:17:48.928Z,1008.84
2022-09-24T05:18:19.398Z,1008.84
2022-09-24T05:18:50.307Z,1008.83
2022-09-24T05:19:21.224Z,1008.85
2022-09-24T05:19:52.184Z,1008.86
2022-09-24T05:20:23.195Z,1008.88
2022-09-24T05:20:53.821Z,1008.89
2022-09-24T05:21:24.309Z,1008.91
2022-09-24T05:21:55.299Z,1008.92
2022-09-24T05:22:25.751Z,1008.93
2022-09-24T05:22:56.734Z,1008.93
2022-09-24T05:23:27.661Z,1008.94
2022-09-24T05:23:58.868Z,1008.95
2022-09-24T05:24:29.353Z,1008.96
2022-09-24T05:25:00.266Z,1008.96
2022-09-24T05:25:31.148Z,1008.97
2022-09-24T05:26:02.087Z,1008.97
2022-09-24T05:26:32.933Z,1008.98
2022-09-24T05:27:04.000Z,1008.99
2022-09-24T05:27:34.440Z,1009.01
2022-09-24T05:28:05.367Z,1009.03
2022-09-24T05:28:36.309Z,1009.03
2022-09-24T05:29:07.224Z,1009.01
2022-09-24T05:29:38.210Z,1008.99
2022-09-24T05:30:09.328Z,1008.95
2022-09-24T05:30:39.702Z,1008.92
2022-09-24T05:31:10.756Z,1008.92
2022-09-24T05:31:41.391Z,1008.92
2022-09-24T05:32:12.358Z,1008.90
2022-09-24T05:32:43.225Z,1008.89
2022-09-24T05:33:14.328Z,1008.88
2022-09-24T05:33:44.765Z,1008.87
2022-09-24T05:34:15.644Z,1008.85
2022-09-24T05:34:46.565Z,1008.88
2022-09-24T05:35:17.483Z,1008.86
2022-09-24T05:35:48.438Z,1008.88
2022-09-24T05:36:19.531Z,1008.87
2022-09-24T05:36:50.008Z,1008.87
2022-09-24T05:37:20.957Z,1008.88
2022-09-24T05:37:51.823Z,1008.87
2022-09-24T05:38:22.757Z,1008.90
2022-09-24T05:38:53.620Z,1008.91
2022-09-24T05:39:24.746Z,1008.91
2022-09-24T05:39:55.183Z,1008.95
2022-09-24T05:40:26.219Z,1008.95
2022-09-24T05:40:56.867Z,1008.95
2022-09-24T05:41:27.381Z,1008.97
2022-09-24T05:41:58.290Z,1008.98
2022-09-24T05:42:29.358Z,1008.98
2022-09-24T05:42:59.784Z,1008.97
2022-09-24T05:43:30.647Z,1009.01
2022-09-24T05:44:01.513Z,1009.01
2022-09-24T05:44:32.457Z,1008.99
2022-09-24T05:45:03.337Z,1009.02
2022-09-24T05:45:34.453Z,1009.03
2022-09-24T05:46:04.930Z,1009.03
2022-09-24T05:46:35.408Z,1009.03
2022-09-24T05:47:06.277Z,1009.05
2022-09-24T05:47:37.140Z,1009.05
2022-09-24T05:48:08.061Z,1009.05
2022-09-24T05:48:39.163Z,1009.05
2022-09-24T05:49:09.724Z,1009.05
2022-09-24T05:49:40.175Z,1009.04
2022-09-24T05:50:11.096Z,1009.03
2022-09-24T05:50:42.072Z,1009.02
2022-09-24T05:51:13.114Z,1009.02
2022-09-24T05:51:43.745Z,1009.03
2022-09-24T05:52:14.166Z,1009.02
2022-09-24T05:52:45.111Z,1009.01
2022-09-24T05:53:16.062Z,1009.01
2022-09-24T05:53:46.927Z,1009.00
2022-09-24T05:54:17.791Z,1008.99
2022-09-24T05:54:48.902Z,1009.00
2022-09-24T05:55:19.353Z,1008.99
2022-09-24T05:55:50.273Z,1009.00
2022-09-24T05:56:21.153Z,1009.00
2022-09-24T05:56:52.113Z,1009.00
2022-09-24T05:57:22.963Z,1009.01
2022-09-24T05:57:54.112Z,1009.02
2022-09-24T05:58:24.551Z,1009.03
2022-09-24T05:58:55.523Z,1009.02
2022-09-24T05:59:26.390Z,1009.01
2022-09-24T05:59:57.259Z,1009.00
2022-09-24T06:00:28.290Z,1009.00
2022-09-24T06:00:58.922Z,1009.00
2022-09-24T06:01:29.351Z,1009.03
2022-09-24T06:02:00.462Z,1009.04
2022-09-24T06:02:30.950Z,1009.02
2022-09-24T06:03:01.967Z,1009.01
2022-09-24T06:03:32.628Z,1009.03
2022-09-24T06:04:08.424Z,1009.04
2022-09-24T06:04:34.771Z,1009.04
2022-09-24T06:05:04.668Z,1009.03
2022-09-24T06:05:35.563Z,1009.02
2022-09-24T06:06:06.468Z,1009.03
2022-09-24T06:06:37.622Z,1009.03
2022-09-24T06:07:08.070Z,1009.03
2022-09-24T06:07:38.953Z,1009.04
2022-09-24T06:08:09.888Z,1009.03
2022-09-24T06:08:40.727Z,1009.04
2022-09-24T06:09:11.657Z,1009.04
2022-09-24T06:09:42.809Z,1009.05
2022-09-24T06:10:13.256Z,1009.05
2022-09-24T06:10:44.142Z,1009.05
2022-09-24T06:11:15.052Z,1009.05
2022-09-24T06:11:45.923Z,1009.07
2022-09-24T06:12:16.787Z,1009.06
2022-09-24T06:12:47.855Z,1009.07